sensor_id;sensor_type;location;lat;lon;timestamp;P1;P2;P0
55043;PMS5003;54902;50.420;18.854;2023-11-19T00:00:12;2;2;1
55043;PMS5003;54902;50.420;18.854;2023-11-19T00:00:44;2;2;1
55043;PMS5003;54902;50.420;18.854;2023-11-19T00:01:15;2;2;1
55043;PMS5003;54902;50.420;18.854;2023-11-19T00:01:46;2;2;1
55043;PMS5003;54902;50.420;18.854;2023-11-19T00:02:17;2;2;1
55043;PMS5003;54902;50.420;18.854;2023-11-19T00:02:49;2;2;1
55043;PMS5003;54902;50.420;18.854;2023-11-19T00:03:20;2;2;1
55043;PMS5003;54902;50.420;18.854;2023-11-19T00:03:50;2;2;1
55043;PMS5003;54902;50.420;18.854;2023-11-19T00:04:21;2;2;1
55043;PMS5003;54902;50.420;18.854;2023-11-19T00:04:53;3;3;1
55043;PMS5003;54902;50.420;18.854;2023-11-19T00:05:24;3;3;1
55043;PMS5003;54902;50.420;18.854;2023-11-19T00:05:56;3;3;1
55043;PMS5003;54902;50.420;18.854;2023-11-19T00:06:27;3;3;1
55043;PMS5003;54902;50.420;18.854;2023-11-19T00:06:58;3;3;1
55043;PMS5003;54902;50.420;18.854;2023-11-19T00:07:36;3;3;1
55043;PMS5003;54902;50.420;18.854;2023-11-19T00:08:14;3;3;1
55043;PMS5003;54902;50.420;18.854;2023-11-19T00:08:45;3;3;1
55043;PMS5003;54902;50.420;18.854;2023-11-19T00:09:16;3;3;1
55043;PMS5003;54902;50.420;18.854;2023-11-19T00:09:48;3;3;1
55043;PMS5003;54902;50.420;18.854;2023-11-19T00:10:20;3;3;1
55043;PMS5003;54902;50.420;18.854;2023-11-19T00:10:51;3;3;1
55043;PMS5003;54902;50.420;18.854;2023-11-19T00:11:22;3;3;1
55043;PMS5003;54902;50.420;18.854;2023-11-19T00:11:53;3;3;1
55043;PMS5003;54902;50.420;18.854;2023-11-19T00:12:24;3;3;1
55043;PMS5003;54902;50.420;18.854;2023-11-19T00:12:55;3;3;1
55043;PMS5003;54902;50.420;18.854;2023-11-19T00:13:27;3;3;1
55043;PMS5003;54902;50.420;18.854;2023-11-19T00:13:58;3;3;1
55043;PMS5003;54902;50.420;18.854;2023-11-19T00:14:29;3;3;1
55043;PMS5003;54902;50.420;18.854;2023-11-19T00:15:01;3;3;1
55043;PMS5003;54902;50.420;18.854;2023-11-19T00:15:32;2;2;2
55043;PMS5003;54902;50.420;18.854;2023-11-19T00:16:03;2;2;2
55043;PMS5003;54902;50.420;18.854;2023-11-19T00:16:35;2;2;2
55043;PMS5003;54902;50.420;18.854;2023-11-19T00:17:06;2;2;2
55043;PMS5003;54902;50.420;18.854;2023-11-19T00:17:37;2;2;2
55043;PMS5003;54902;50.420;18.854;2023-11-19T00:18:12;2;2;2
55043;PMS5003;54902;50.420;18.854;2023-11-19T00:18:44;2;2;2
55043;PMS5003;54902;50.420;18.854;2023-11-19T00:19:15;2;2;2
55043;PMS5003;54902;50.420;18.854;2023-11-19T00:19:47;2;2;2
55043;PMS5003;54902;50.420;18.854;2023-11-19T00:20:20;2;2;2
55043;PMS5003;54902;50.420;18.854;2023-11-19T00:20:52;3;3;3
55043;PMS5003;54902;50.420;18.854;2023-11-19T00:21:23;3;3;3
55043;PMS5003;54902;50.420;18.854;2023-11-19T00:21:54;3;3;3
55043;PMS5003;54902;50.420;18.854;2023-11-19T00:22:25;3;3;3
55043;PMS5003;54902;50.420;18.854;2023-11-19T00:22:56;3;3;3
55043;PMS5003;54902;50.420;18.854;2023-11-19T00:23:28;3;3;3
55043;PMS5003;54902;50.420;18.854;2023-11-19T00:23:59;3;3;3
55043;PMS5003;54902;50.420;18.854;2023-11-19T00:24:30;3;3;3
55043;PMS5003;54902;50.420;18.854;2023-11-19T00:25:02;3;3;3
55043;PMS5003;54902;50.420;18.854;2023-11-19T00:25:34;3;3;3
55043;PMS5003;54902;50.420;18.854;2023-11-19T00:26:05;7;7;6
55043;PMS5003;54902;50.420;18.854;2023-11-19T00:26:36;7;7;6
55043;PMS5003;54902;50.420;18.854;2023-11-19T00:27:07;7;7;6
55043;PMS5003;54902;50.420;18.854;2023-11-19T00:27:38;7;7;6
55043;PMS5003;54902;50.420;18.854;2023-11-19T00:28:09;7;7;6
55043;PMS5003;54902;50.420;18.854;2023-11-19T00:28:40;7;7;6
55043;PMS5003;54902;50.420;18.854;2023-11-19T00:29:13;7;7;6
55043;PMS5003;54902;50.420;18.854;2023-11-19T00:29:44;7;7;6
55043;PMS5003;54902;50.420;18.854;2023-11-19T00:30:16;7;7;6
55043;PMS5003;54902;50.420;18.854;2023-11-19T00:30:47;7;7;6
55043;PMS5003;54902;50.420;18.854;2023-11-19T00:31:19;9;9;7
55043;PMS5003;54902;50.420;18.854;2023-11-19T00:31:50;9;9;7
55043;PMS5003;54902;50.420;18.854;2023-11-19T00:32:22;9;9;7
55043;PMS5003;54902;50.420;18.854;2023-11-19T00:32:53;9;9;7
55043;PMS5003;54902;50.420;18.854;2023-11-19T00:33:24;9;9;7
55043;PMS5003;54902;50.420;18.854;2023-11-19T00:33:55;5;5;4
55043;PMS5003;54902;50.420;18.854;2023-11-19T00:34:26;5;5;4
55043;PMS5003;54902;50.420;18.854;2023-11-19T00:34:57;5;5;4
55043;PMS5003;54902;50.420;18.854;2023-11-19T00:35:28;5;5;4
55043;PMS5003;54902;50.420;18.854;2023-11-19T00:36:03;5;5;4
55043;PMS5003;54902;50.420;18.854;2023-11-19T00:36:34;1;1;0
55043;PMS5003;54902;50.420;18.854;2023-11-19T00:37:05;1;1;0
55043;PMS5003;54902;50.420;18.854;2023-11-19T00:37:37;5;5;4
55043;PMS5003;54902;50.420;18.854;2023-11-19T00:38:08;5;5;4
55043;PMS5003;54902;50.420;18.854;2023-11-19T00:38:39;5;5;4
55043;PMS5003;54902;50.420;18.854;2023-11-19T00:39:10;5;5;4
55043;PMS5003;54902;50.420;18.854;2023-11-19T00:39:41;5;5;4
55043;PMS5003;54902;50.420;18.854;2023-11-19T00:40:13;5;5;4
55043;PMS5003;54902;50.420;18.854;2023-11-19T00:40:48;5;5;4
55043;PMS5003;54902;50.420;18.854;2023-11-19T00:41:19;5;5;4
55043;PMS5003;54902;50.420;18.854;2023-11-19T00:41:50;9;9;6
55043;PMS5003;54902;50.420;18.854;2023-11-19T00:42:22;9;9;6
55043;PMS5003;54902;50.420;18.854;2023-11-19T00:42:54;9;9;6
55043;PMS5003;54902;50.420;18.854;2023-11-19T00:43:25;9;9;6
55043;PMS5003;54902;50.420;18.854;2023-11-19T00:43:57;9;9;6
55043;PMS5003;54902;50.420;18.854;2023-11-19T00:44:28;9;9;6
55043;PMS5003;54902;50.420;18.854;2023-11-19T00:44:59;9;9;6
55043;PMS5003;54902;50.420;18.854;2023-11-19T00:45:31;9;9;6
55043;PMS5003;54902;50.420;18.854;2023-11-19T00:46:02;9;9;6
55043;PMS5003;54902;50.420;18.854;2023-11-19T00:46:35;9;9;6
55043;PMS5003;54902;50.420;18.854;2023-11-19T00:47:07;10;10;7
55043;PMS5003;54902;50.420;18.854;2023-11-19T00:47:38;10;10;7
55043;PMS5003;54902;50.420;18.854;2023-11-19T00:48:09;10;10;7
55043;PMS5003;54902;50.420;18.854;2023-11-19T00:48:40;10;10;7
55043;PMS5003;54902;50.420;18.854;2023-11-19T00:49:11;10;10;7
55043;PMS5003;54902;50.420;18.854;2023-11-19T00:49:42;10;10;7
55043;PMS5003;54902;50.420;18.854;2023-11-19T00:50:13;10;10;7
55043;PMS5003;54902;50.420;18.854;2023-11-19T00:50:44;10;10;7
55043;PMS5003;54902;50.420;18.854;2023-11-19T00:51:16;10;10;7
55043;PMS5003;54902;50.420;18.854;2023-11-19T00:51:47;10;10;7
55043;PMS5003;54902;50.420;18.854;2023-11-19T00:52:19;16;14;8
55043;PMS5003;54902;50.420;18.854;2023-11-19T00:52:52;16;14;8
55043;PMS5003;54902;50.420;18.854;2023-11-19T00:53:23;16;14;8
55043;PMS5003;54902;50.420;18.854;2023-11-19T00:53:54;16;14;8
55043;PMS5003;54902;50.420;18.854;2023-11-19T00:54:25;16;14;8
55043;PMS5003;54902;50.420;18.854;2023-11-19T00:54:56;16;14;8
55043;PMS5003;54902;50.420;18.854;2023-11-19T00:55:27;16;14;8
55043;PMS5003;54902;50.420;18.854;2023-11-19T00:55:59;16;14;8
55043;PMS5003;54902;50.420;18.854;2023-11-19T00:56:30;16;14;8
55043;PMS5003;54902;50.420;18.854;2023-11-19T00:57:01;16;14;8
55043;PMS5003;54902;50.420;18.854;2023-11-19T00:57:32;21;19;10
55043;PMS5003;54902;50.420;18.854;2023-11-19T00:58:03;21;19;10
55043;PMS5003;54902;50.420;18.854;2023-11-19T00:58:34;21;19;10
55043;PMS5003;54902;50.420;18.854;2023-11-19T00:59:07;21;19;10
55043;PMS5003;54902;50.420;18.854;2023-11-19T00:59:40;21;19;10
55043;PMS5003;54902;50.420;18.854;2023-11-19T01:00:12;21;19;10
55043;PMS5003;54902;50.420;18.854;2023-11-19T01:00:51;21;19;10
55043;PMS5003;54902;50.420;18.854;2023-11-19T01:01:22;21;19;10
55043;PMS5003;54902;50.420;18.854;2023-11-19T01:01:53;21;19;10
55043;PMS5003;54902;50.420;18.854;2023-11-19T01:02:25;21;19;10
55043;PMS5003;54902;50.420;18.854;2023-11-19T01:02:56;21;19;10
55043;PMS5003;54902;50.420;18.854;2023-11-19T01:03:27;21;19;10
55043;PMS5003;54902;50.420;18.854;2023-11-19T01:03:58;21;19;10
55043;PMS5003;54902;50.420;18.854;2023-11-19T01:04:33;21;19;10
55043;PMS5003;54902;50.420;18.854;2023-11-19T01:05:07;21;19;10
55043;PMS5003;54902;50.420;18.854;2023-11-19T01:05:39;21;19;10
55043;PMS5003;54902;50.420;18.854;2023-11-19T01:06:10;21;19;10
55043;PMS5003;54902;50.420;18.854;2023-11-19T01:06:41;21;19;10
55043;PMS5003;54902;50.420;18.854;2023-11-19T01:07:12;19;17;9
55043;PMS5003;54902;50.420;18.854;2023-11-19T01:07:43;19;17;9
55043;PMS5003;54902;50.420;18.854;2023-11-19T01:08:14;13;12;9
55043;PMS5003;54902;50.420;18.854;2023-11-19T01:08:46;13;12;9
55043;PMS5003;54902;50.420;18.854;2023-11-19T01:09:17;13;12;9
55043;PMS5003;54902;50.420;18.854;2023-11-19T01:09:48;13;12;9
55043;PMS5003;54902;50.420;18.854;2023-11-19T01:10:19;13;12;9
55043;PMS5003;54902;50.420;18.854;2023-11-19T01:10:51;13;12;9
55043;PMS5003;54902;50.420;18.854;2023-11-19T01:11:22;13;12;9
55043;PMS5003;54902;50.420;18.854;2023-11-19T01:11:53;13;12;9
55043;PMS5003;54902;50.420;18.854;2023-11-19T01:12:24;13;12;9
55043;PMS5003;54902;50.420;18.854;2023-11-19T01:12:55;13;12;9
55043;PMS5003;54902;50.420;18.854;2023-11-19T01:13:27;16;15;12
55043;PMS5003;54902;50.420;18.854;2023-11-19T01:13:59;7;7;5
55043;PMS5003;54902;50.420;18.854;2023-11-19T01:14:30;7;7;5
55043;PMS5003;54902;50.420;18.854;2023-11-19T01:15:01;7;7;5
55043;PMS5003;54902;50.420;18.854;2023-11-19T01:15:33;7;7;5
55043;PMS5003;54902;50.420;18.854;2023-11-19T01:16:04;7;7;5
55043;PMS5003;54902;50.420;18.854;2023-11-19T01:16:37;7;7;5
55043;PMS5003;54902;50.420;18.854;2023-11-19T01:17:08;7;7;5
55043;PMS5003;54902;50.420;18.854;2023-11-19T01:17:39;7;7;5
55043;PMS5003;54902;50.420;18.854;2023-11-19T01:18:10;7;7;5
55043;PMS5003;54902;50.420;18.854;2023-11-19T01:18:41;10;10;7
55043;PMS5003;54902;50.420;18.854;2023-11-19T01:19:12;10;10;7
55043;PMS5003;54902;50.420;18.854;2023-11-19T01:19:43;10;10;7
55043;PMS5003;54902;50.420;18.854;2023-11-19T01:20:14;10;10;7
55043;PMS5003;54902;50.420;18.854;2023-11-19T01:20:45;10;10;7
55043;PMS5003;54902;50.420;18.854;2023-11-19T01:21:16;10;10;7
55043;PMS5003;54902;50.420;18.854;2023-11-19T01:21:48;10;10;7
55043;PMS5003;54902;50.420;18.854;2023-11-19T01:22:19;10;10;7
55043;PMS5003;54902;50.420;18.854;2023-11-19T01:22:50;10;10;7
55043;PMS5003;54902;50.420;18.854;2023-11-19T01:23:22;10;10;7
55043;PMS5003;54902;50.420;18.854;2023-11-19T01:23:53;10;10;7
55043;PMS5003;54902;50.420;18.854;2023-11-19T01:24:23;10;10;7
55043;PMS5003;54902;50.420;18.854;2023-11-19T01:24:58;10;10;7
55043;PMS5003;54902;50.420;18.854;2023-11-19T01:25:30;10;10;7
55043;PMS5003;54902;50.420;18.854;2023-11-19T01:26:02;10;10;7
55043;PMS5003;54902;50.420;18.854;2023-11-19T01:26:33;10;10;7
55043;PMS5003;54902;50.420;18.854;2023-11-19T01:27:04;10;10;7
55043;PMS5003;54902;50.420;18.854;2023-11-19T01:27:35;10;10;7
55043;PMS5003;54902;50.420;18.854;2023-11-19T01:28:06;10;10;7
55043;PMS5003;54902;50.420;18.854;2023-11-19T01:28:38;10;10;7
55043;PMS5003;54902;50.420;18.854;2023-11-19T01:29:15;10;10;7
55043;PMS5003;54902;50.420;18.854;2023-11-19T01:29:46;10;10;7
55043;PMS5003;54902;50.420;18.854;2023-11-19T01:30:17;10;10;7
55043;PMS5003;54902;50.420;18.854;2023-11-19T01:30:52;10;10;7
55043;PMS5003;54902;50.420;18.854;2023-11-19T01:31:24;10;10;7
55043;PMS5003;54902;50.420;18.854;2023-11-19T01:31:54;10;10;7
55043;PMS5003;54902;50.420;18.854;2023-11-19T01:32:25;10;10;7
55043;PMS5003;54902;50.420;18.854;2023-11-19T01:32:56;10;10;7
55043;PMS5003;54902;50.420;18.854;2023-11-19T01:33:27;11;11;8
55043;PMS5003;54902;50.420;18.854;2023-11-19T01:33:58;11;11;8
55043;PMS5003;54902;50.420;18.854;2023-11-19T01:34:29;15;15;11
55043;PMS5003;54902;50.420;18.854;2023-11-19T01:35:00;15;15;11
55043;PMS5003;54902;50.420;18.854;2023-11-19T01:35:31;15;15;11
55043;PMS5003;54902;50.420;18.854;2023-11-19T01:36:03;15;15;11
55043;PMS5003;54902;50.420;18.854;2023-11-19T01:36:34;15;15;11
55043;PMS5003;54902;50.420;18.854;2023-11-19T01:37:05;15;15;11
55043;PMS5003;54902;50.420;18.854;2023-11-19T01:37:36;15;15;11
55043;PMS5003;54902;50.420;18.854;2023-11-19T01:38:07;15;15;11
55043;PMS5003;54902;50.420;18.854;2023-11-19T01:38:41;15;15;11
55043;PMS5003;54902;50.420;18.854;2023-11-19T01:39:12;15;15;11
55043;PMS5003;54902;50.420;18.854;2023-11-19T01:39:46;21;19;13
55043;PMS5003;54902;50.420;18.854;2023-11-19T01:40:21;21;19;13
55043;PMS5003;54902;50.420;18.854;2023-11-19T01:40:55;21;19;13
55043;PMS5003;54902;50.420;18.854;2023-11-19T01:41:27;21;19;13
55043;PMS5003;54902;50.420;18.854;2023-11-19T01:41:58;21;19;13
55043;PMS5003;54902;50.420;18.854;2023-11-19T01:42:29;21;19;13
55043;PMS5003;54902;50.420;18.854;2023-11-19T01:43:00;21;19;13
55043;PMS5003;54902;50.420;18.854;2023-11-19T01:43:34;21;19;13
55043;PMS5003;54902;50.420;18.854;2023-11-19T01:44:06;21;19;13
55043;PMS5003;54902;50.420;18.854;2023-11-19T01:44:38;21;19;13
55043;PMS5003;54902;50.420;18.854;2023-11-19T01:45:09;21;19;13
55043;PMS5003;54902;50.420;18.854;2023-11-19T01:45:45;12;12;9
55043;PMS5003;54902;50.420;18.854;2023-11-19T01:46:16;12;12;9
55043;PMS5003;54902;50.420;18.854;2023-11-19T01:46:47;12;12;9
55043;PMS5003;54902;50.420;18.854;2023-11-19T01:47:19;12;12;9
55043;PMS5003;54902;50.420;18.854;2023-11-19T01:47:50;12;12;9
55043;PMS5003;54902;50.420;18.854;2023-11-19T01:48:22;12;12;9
55043;PMS5003;54902;50.420;18.854;2023-11-19T01:48:53;12;12;9
55043;PMS5003;54902;50.420;18.854;2023-11-19T01:49:25;12;12;9
55043;PMS5003;54902;50.420;18.854;2023-11-19T01:49:56;12;12;9
55043;PMS5003;54902;50.420;18.854;2023-11-19T01:50:28;18;18;12
55043;PMS5003;54902;50.420;18.854;2023-11-19T01:51:00;18;18;12
55043;PMS5003;54902;50.420;18.854;2023-11-19T01:51:32;18;18;12
55043;PMS5003;54902;50.420;18.854;2023-11-19T01:52:05;18;18;12
55043;PMS5003;54902;50.420;18.854;2023-11-19T01:52:36;18;18;12
55043;PMS5003;54902;50.420;18.854;2023-11-19T01:53:08;18;18;12
55043;PMS5003;54902;50.420;18.854;2023-11-19T01:53:39;18;18;12
55043;PMS5003;54902;50.420;18.854;2023-11-19T01:54:11;18;18;12
55043;PMS5003;54902;50.420;18.854;2023-11-19T01:54:43;18;18;12
55043;PMS5003;54902;50.420;18.854;2023-11-19T01:55:15;18;18;12
55043;PMS5003;54902;50.420;18.854;2023-11-19T01:55:46;18;18;12
55043;PMS5003;54902;50.420;18.854;2023-11-19T01:56:18;18;18;12
55043;PMS5003;54902;50.420;18.854;2023-11-19T01:56:52;18;18;12
55043;PMS5003;54902;50.420;18.854;2023-11-19T01:57:27;18;18;12
55043;PMS5003;54902;50.420;18.854;2023-11-19T01:57:59;18;18;12
55043;PMS5003;54902;50.420;18.854;2023-11-19T01:58:32;18;18;12
55043;PMS5003;54902;50.420;18.854;2023-11-19T01:59:04;18;18;12
55043;PMS5003;54902;50.420;18.854;2023-11-19T01:59:36;18;18;12
55043;PMS5003;54902;50.420;18.854;2023-11-19T02:00:07;18;18;12
55043;PMS5003;54902;50.420;18.854;2023-11-19T02:00:44;18;18;12
55043;PMS5003;54902;50.420;18.854;2023-11-19T02:01:15;18;18;12
55043;PMS5003;54902;50.420;18.854;2023-11-19T02:01:46;15;14;9
55043;PMS5003;54902;50.420;18.854;2023-11-19T02:02:18;15;14;9
55043;PMS5003;54902;50.420;18.854;2023-11-19T02:02:52;15;14;9
55043;PMS5003;54902;50.420;18.854;2023-11-19T02:03:25;15;14;9
55043;PMS5003;54902;50.420;18.854;2023-11-19T02:03:59;15;14;9
55043;PMS5003;54902;50.420;18.854;2023-11-19T02:04:31;15;14;9
55043;PMS5003;54902;50.420;18.854;2023-11-19T02:05:05;19;17;11
55043;PMS5003;54902;50.420;18.854;2023-11-19T02:05:37;19;17;11
55043;PMS5003;54902;50.420;18.854;2023-11-19T02:06:09;19;17;11
55043;PMS5003;54902;50.420;18.854;2023-11-19T02:06:40;10;9;8
55043;PMS5003;54902;50.420;18.854;2023-11-19T02:07:14;10;9;8
55043;PMS5003;54902;50.420;18.854;2023-11-19T02:07:47;10;9;8
55043;PMS5003;54902;50.420;18.854;2023-11-19T02:08:21;10;9;8
55043;PMS5003;54902;50.420;18.854;2023-11-19T02:08:52;10;9;8
55043;PMS5003;54902;50.420;18.854;2023-11-19T02:09:23;10;9;8
55043;PMS5003;54902;50.420;18.854;2023-11-19T02:09:54;10;9;8
55043;PMS5003;54902;50.420;18.854;2023-11-19T02:10:28;10;9;8
55043;PMS5003;54902;50.420;18.854;2023-11-19T02:10:59;10;9;8
55043;PMS5003;54902;50.420;18.854;2023-11-19T02:11:30;10;9;8
55043;PMS5003;54902;50.420;18.854;2023-11-19T02:12:01;12;12;10
55043;PMS5003;54902;50.420;18.854;2023-11-19T02:12:33;12;12;10
55043;PMS5003;54902;50.420;18.854;2023-11-19T02:13:06;12;12;10
55043;PMS5003;54902;50.420;18.854;2023-11-19T02:13:37;12;12;10
55043;PMS5003;54902;50.420;18.854;2023-11-19T02:14:11;12;12;10
55043;PMS5003;54902;50.420;18.854;2023-11-19T02:14:42;12;12;10
55043;PMS5003;54902;50.420;18.854;2023-11-19T02:15:14;12;12;10
55043;PMS5003;54902;50.420;18.854;2023-11-19T02:15:45;12;12;10
55043;PMS5003;54902;50.420;18.854;2023-11-19T02:16:16;12;12;10
55043;PMS5003;54902;50.420;18.854;2023-11-19T02:16:47;12;12;10
55043;PMS5003;54902;50.420;18.854;2023-11-19T02:18:16;12;12;10
55043;PMS5003;54902;50.420;18.854;2023-11-19T02:18:40;15;14;10
55043;PMS5003;54902;50.420;18.854;2023-11-19T02:19:11;15;14;10
55043;PMS5003;54902;50.420;18.854;2023-11-19T02:19:42;15;14;10
55043;PMS5003;54902;50.420;18.854;2023-11-19T02:20:13;15;14;10
55043;PMS5003;54902;50.420;18.854;2023-11-19T02:20:46;15;14;10
55043;PMS5003;54902;50.420;18.854;2023-11-19T02:21:17;15;14;10
55043;PMS5003;54902;50.420;18.854;2023-11-19T02:21:48;15;14;10
55043;PMS5003;54902;50.420;18.854;2023-11-19T02:22:20;15;14;10
55043;PMS5003;54902;50.420;18.854;2023-11-19T02:22:51;21;21;14
55043;PMS5003;54902;50.420;18.854;2023-11-19T02:23:22;21;21;14
55043;PMS5003;54902;50.420;18.854;2023-11-19T02:23:55;21;21;14
55043;PMS5003;54902;50.420;18.854;2023-11-19T02:24:28;21;21;14
55043;PMS5003;54902;50.420;18.854;2023-11-19T02:25:06;21;21;14
55043;PMS5003;54902;50.420;18.854;2023-11-19T02:25:40;21;21;14
55043;PMS5003;54902;50.420;18.854;2023-11-19T02:26:18;21;21;14
55043;PMS5003;54902;50.420;18.854;2023-11-19T02:27:02;21;21;14
55043;PMS5003;54902;50.420;18.854;2023-11-19T02:28:16;21;21;14
55043;PMS5003;54902;50.420;18.854;2023-11-19T02:28:48;22;22;15
55043;PMS5003;54902;50.420;18.854;2023-11-19T02:29:20;22;22;15
55043;PMS5003;54902;50.420;18.854;2023-11-19T02:29:51;22;22;15
55043;PMS5003;54902;50.420;18.854;2023-11-19T02:30:23;22;22;15
55043;PMS5003;54902;50.420;18.854;2023-11-19T02:30:56;22;22;15
55043;PMS5003;54902;50.420;18.854;2023-11-19T02:31:27;22;22;15
55043;PMS5003;54902;50.420;18.854;2023-11-19T02:31:58;22;22;15
55043;PMS5003;54902;50.420;18.854;2023-11-19T02:32:30;22;22;15
55043;PMS5003;54902;50.420;18.854;2023-11-19T02:33:01;22;22;15
55043;PMS5003;54902;50.420;18.854;2023-11-19T02:33:38;22;22;15
55043;PMS5003;54902;50.420;18.854;2023-11-19T02:34:12;22;22;15
55043;PMS5003;54902;50.420;18.854;2023-11-19T02:34:43;22;22;15
55043;PMS5003;54902;50.420;18.854;2023-11-19T02:35:15;22;22;15
55043;PMS5003;54902;50.420;18.854;2023-11-19T02:35:45;22;22;15
55043;PMS5003;54902;50.420;18.854;2023-11-19T02:36:16;22;22;15
55043;PMS5003;54902;50.420;18.854;2023-11-19T02:36:48;22;22;15
55043;PMS5003;54902;50.420;18.854;2023-11-19T02:37:20;22;22;15
55043;PMS5003;54902;50.420;18.854;2023-11-19T02:37:51;22;22;15
55043;PMS5003;54902;50.420;18.854;2023-11-19T02:38:22;22;22;15
55043;PMS5003;54902;50.420;18.854;2023-11-19T02:38:53;22;22;15
55043;PMS5003;54902;50.420;18.854;2023-11-19T02:39:25;22;22;15
55043;PMS5003;54902;50.420;18.854;2023-11-19T02:39:56;22;22;15
55043;PMS5003;54902;50.420;18.854;2023-11-19T02:40:33;22;22;15
55043;PMS5003;54902;50.420;18.854;2023-11-19T02:41:04;22;22;15
55043;PMS5003;54902;50.420;18.854;2023-11-19T02:41:36;22;22;15
55043;PMS5003;54902;50.420;18.854;2023-11-19T02:42:09;22;22;15
55043;PMS5003;54902;50.420;18.854;2023-11-19T02:42:41;22;22;15
55043;PMS5003;54902;50.420;18.854;2023-11-19T02:43:12;22;22;15
55043;PMS5003;54902;50.420;18.854;2023-11-19T02:43:43;22;22;15
55043;PMS5003;54902;50.420;18.854;2023-11-19T02:44:14;22;22;15
55043;PMS5003;54902;50.420;18.854;2023-11-19T02:44:45;22;22;15
55043;PMS5003;54902;50.420;18.854;2023-11-19T02:45:18;22;22;15
55043;PMS5003;54902;50.420;18.854;2023-11-19T02:45:50;22;22;15
55043;PMS5003;54902;50.420;18.854;2023-11-19T02:46:21;22;22;15
55043;PMS5003;54902;50.420;18.854;2023-11-19T02:46:52;22;22;15
55043;PMS5003;54902;50.420;18.854;2023-11-19T02:47:23;22;22;15
55043;PMS5003;54902;50.420;18.854;2023-11-19T02:47:54;22;22;15
55043;PMS5003;54902;50.420;18.854;2023-11-19T02:48:25;22;22;15
55043;PMS5003;54902;50.420;18.854;2023-11-19T02:48:56;22;22;15
55043;PMS5003;54902;50.420;18.854;2023-11-19T02:49:27;22;22;15
55043;PMS5003;54902;50.420;18.854;2023-11-19T02:49:58;22;22;15
55043;PMS5003;54902;50.420;18.854;2023-11-19T02:50:29;22;22;15
55043;PMS5003;54902;50.420;18.854;2023-11-19T02:51:06;22;22;15
55043;PMS5003;54902;50.420;18.854;2023-11-19T02:51:41;22;22;15
55043;PMS5003;54902;50.420;18.854;2023-11-19T02:52:12;22;22;15
55043;PMS5003;54902;50.420;18.854;2023-11-19T02:52:46;22;22;15
55043;PMS5003;54902;50.420;18.854;2023-11-19T02:53:17;22;22;15
55043;PMS5003;54902;50.420;18.854;2023-11-19T02:53:48;22;22;15
55043;PMS5003;54902;50.420;18.854;2023-11-19T02:54:19;22;22;15
55043;PMS5003;54902;50.420;18.854;2023-11-19T02:54:56;21;21;14
55043;PMS5003;54902;50.420;18.854;2023-11-19T02:55:27;13;13;8
55043;PMS5003;54902;50.420;18.854;2023-11-19T02:56:06;13;13;8
55043;PMS5003;54902;50.420;18.854;2023-11-19T02:56:50;13;13;8
55043;PMS5003;54902;50.420;18.854;2023-11-19T02:57:32;13;13;8
55043;PMS5003;54902;50.420;18.854;2023-11-19T02:58:04;13;13;8
55043;PMS5003;54902;50.420;18.854;2023-11-19T02:58:45;13;13;8
55043;PMS5003;54902;50.420;18.854;2023-11-19T02:59:17;13;13;8
55043;PMS5003;54902;50.420;18.854;2023-11-19T02:59:58;14;14;7
55043;PMS5003;54902;50.420;18.854;2023-11-19T03:00:30;14;14;7
55043;PMS5003;54902;50.420;18.854;2023-11-19T03:01:12;14;14;7
55043;PMS5003;54902;50.420;18.854;2023-11-19T03:01:54;9;9;4
55043;PMS5003;54902;50.420;18.854;2023-11-19T03:02:25;9;9;4
55043;PMS5003;54902;50.420;18.854;2023-11-19T03:03:06;9;9;4
55043;PMS5003;54902;50.420;18.854;2023-11-19T03:03:50;9;9;4
55043;PMS5003;54902;50.420;18.854;2023-11-19T03:04:28;9;9;4
55043;PMS5003;54902;50.420;18.854;2023-11-19T03:05:00;9;9;4
55043;PMS5003;54902;50.420;18.854;2023-11-19T03:05:33;9;9;4
55043;PMS5003;54902;50.420;18.854;2023-11-19T03:06:07;9;9;4
55043;PMS5003;54902;50.420;18.854;2023-11-19T03:06:40;9;9;4
55043;PMS5003;54902;50.420;18.854;2023-11-19T03:07:14;9;9;4
55043;PMS5003;54902;50.420;18.854;2023-11-19T03:07:45;10;10;6
55043;PMS5003;54902;50.420;18.854;2023-11-19T03:08:19;9;9;6
55043;PMS5003;54902;50.420;18.854;2023-11-19T03:08:50;9;9;6
55043;PMS5003;54902;50.420;18.854;2023-11-19T03:09:21;9;9;6
55043;PMS5003;54902;50.420;18.854;2023-11-19T03:09:59;9;9;6
55043;PMS5003;54902;50.420;18.854;2023-11-19T03:10:40;9;9;6
55043;PMS5003;54902;50.420;18.854;2023-11-19T03:11:19;9;9;6
55043;PMS5003;54902;50.420;18.854;2023-11-19T03:11:50;9;9;6
55043;PMS5003;54902;50.420;18.854;2023-11-19T03:12:21;9;9;6
55043;PMS5003;54902;50.420;18.854;2023-11-19T03:12:52;12;12;9
55043;PMS5003;54902;50.420;18.854;2023-11-19T03:13:27;12;12;9
55043;PMS5003;54902;50.420;18.854;2023-11-19T03:13:58;12;12;9
55043;PMS5003;54902;50.420;18.854;2023-11-19T03:14:29;12;12;9
55043;PMS5003;54902;50.420;18.854;2023-11-19T03:15:01;12;12;9
55043;PMS5003;54902;50.420;18.854;2023-11-19T03:15:32;12;12;9
55043;PMS5003;54902;50.420;18.854;2023-11-19T03:16:03;12;12;9
55043;PMS5003;54902;50.420;18.854;2023-11-19T03:16:34;12;12;9
55043;PMS5003;54902;50.420;18.854;2023-11-19T03:17:05;12;12;9
55043;PMS5003;54902;50.420;18.854;2023-11-19T03:17:39;12;12;9
55043;PMS5003;54902;50.420;18.854;2023-11-19T03:18:11;12;12;9
55043;PMS5003;54902;50.420;18.854;2023-11-19T03:18:42;12;12;9
55043;PMS5003;54902;50.420;18.854;2023-11-19T03:19:13;12;12;9
55043;PMS5003;54902;50.420;18.854;2023-11-19T03:19:44;12;12;9
55043;PMS5003;54902;50.420;18.854;2023-11-19T03:20:15;12;12;9
55043;PMS5003;54902;50.420;18.854;2023-11-19T03:20:47;12;12;9
55043;PMS5003;54902;50.420;18.854;2023-11-19T03:21:19;12;12;9
55043;PMS5003;54902;50.420;18.854;2023-11-19T03:22:00;12;12;9
55043;PMS5003;54902;50.420;18.854;2023-11-19T03:22:32;12;12;9
55043;PMS5003;54902;50.420;18.854;2023-11-19T03:23:06;12;12;9
55043;PMS5003;54902;50.420;18.854;2023-11-19T03:23:37;12;12;9
55043;PMS5003;54902;50.420;18.854;2023-11-19T03:24:12;12;12;9
55043;PMS5003;54902;50.420;18.854;2023-11-19T03:24:45;12;12;9
55043;PMS5003;54902;50.420;18.854;2023-11-19T03:25:16;12;12;9
55043;PMS5003;54902;50.420;18.854;2023-11-19T03:25:48;11;11;9
55043;PMS5003;54902;50.420;18.854;2023-11-19T03:26:19;11;11;9
55043;PMS5003;54902;50.420;18.854;2023-11-19T03:26:50;11;11;9
55043;PMS5003;54902;50.420;18.854;2023-11-19T03:27:21;11;11;9
55043;PMS5003;54902;50.420;18.854;2023-11-19T03:27:52;11;11;9
55043;PMS5003;54902;50.420;18.854;2023-11-19T03:28:23;11;11;9
55043;PMS5003;54902;50.420;18.854;2023-11-19T03:28:55;15;15;13